Houston, Texas
Traffic Map
Current Weather Conditions
Houston, Texas
Clear
Clear
20°
Feels Like: 20°
Wind Chill: 20° Ceiling: Unl
Heat Index: 20° Visibility: 10mi
Dew Point: 14° Wind: 10mph
Humidity: 68% Direction: 80° (E)
Pressure: 29.92in Gusts: 16mph
Raw Report DataKMCJ 220135Z AUTO 08009G14KT 040V020 10SM CLR 20/14 A2992 RMK AO1
Traffic Incident Summary
Active as of:
Severity:
Category:
InformationThere was an issue retrieving the traffic information for this location. Please try a different location or try again shortly.
Advertisements
Track Severe Weather on mobile